createdAt,value
2018-07-10T00:02:17.608Z,20.81
2018-07-10T00:06:02.062Z,20.84
2018-07-10T00:10:48.788Z,20.90
2018-07-10T00:13:18.710Z,20.79
2018-07-10T00:15:48.578Z,20.86
2018-07-10T00:18:18.477Z,20.90
2018-07-10T00:20:48.471Z,20.78
2018-07-10T00:23:18.454Z,20.83
2018-07-10T00:25:48.361Z,20.87
2018-07-10T00:28:18.228Z,20.88
2018-07-10T00:30:48.251Z,20.84
2018-07-10T00:33:18.291Z,20.71
2018-07-10T00:35:48.156Z,20.79
2018-07-10T00:38:28.661Z,20.77
2018-07-10T00:40:58.687Z,20.76
2018-07-10T00:43:28.653Z,20.82
2018-07-10T00:45:58.591Z,20.88
2018-07-10T00:48:28.508Z,20.88
2018-07-10T00:50:58.652Z,20.88
2018-07-10T00:53:28.656Z,20.83
2018-07-10T00:55:58.524Z,20.85
2018-07-10T00:58:28.519Z,20.74
2018-07-10T01:00:58.571Z,20.74
2018-07-10T01:03:28.492Z,20.70
2018-07-10T01:05:58.449Z,20.72
2018-07-10T01:08:28.375Z,20.67
2018-07-10T01:11:07.497Z,20.73
2018-07-10T01:13:37.715Z,20.72
2018-07-10T01:16:07.769Z,20.70
2018-07-10T01:18:45.885Z,20.62
2018-07-10T01:21:18.330Z,20.66
2018-07-10T01:23:55.787Z,20.56
2018-07-10T01:26:26.488Z,20.56
2018-07-10T01:29:01.208Z,20.57
2018-07-10T01:31:31.305Z,20.63
2018-07-10T01:34:01.296Z,20.59
2018-07-10T01:36:31.351Z,20.60
2018-07-10T01:39:01.239Z,20.62
2018-07-10T01:41:31.276Z,20.67
2018-07-10T01:44:01.255Z,20.71
2018-07-10T01:46:31.496Z,20.70
2018-07-10T01:49:01.580Z,20.57
2018-07-10T01:51:32.617Z,20.73
2018-07-10T01:54:02.608Z,20.63
2018-07-10T01:56:32.878Z,20.63
2018-07-10T01:59:03.065Z,20.59
2018-07-10T02:01:32.956Z,20.55
2018-07-10T02:04:02.980Z,20.55
2018-07-10T02:06:32.936Z,20.53
2018-07-10T02:09:02.968Z,20.51
2018-07-10T02:11:33.048Z,20.59
2018-07-10T02:14:03.066Z,20.46
2018-07-10T02:16:33.020Z,20.41
2018-07-10T02:19:03.004Z,20.45
2018-07-10T02:21:33.019Z,20.45
2018-07-10T02:24:03.019Z,20.50
2018-07-10T02:26:33.032Z,20.47
2018-07-10T02:29:03.092Z,20.44
2018-07-10T02:31:33.048Z,20.39
2018-07-10T02:34:03.024Z,20.38
2018-07-10T02:36:32.915Z,20.34
2018-07-10T02:39:03.013Z,20.34
2018-07-10T02:41:33.009Z,20.31
2018-07-10T02:44:04.176Z,20.39
2018-07-10T02:46:38.285Z,20.43
2018-07-10T02:49:21.008Z,20.46
2018-07-10T02:51:59.067Z,20.45
2018-07-10T02:54:30.868Z,20.32
2018-07-10T02:57:00.917Z,20.39
2018-07-10T02:59:36.756Z,20.41
2018-07-10T03:02:08.925Z,20.42
2018-07-10T03:04:41.068Z,20.36
2018-07-10T03:07:14.284Z,20.28
2018-07-10T03:09:45.528Z,20.21
2018-07-10T03:12:16.467Z,20.22
2018-07-10T03:14:46.553Z,20.25
2018-07-10T03:17:21.332Z,20.17
2018-07-10T03:19:52.331Z,20.23
2018-07-10T03:22:22.284Z,20.26
2018-07-10T03:24:52.324Z,20.27
2018-07-10T03:27:22.188Z,20.24
2018-07-10T03:29:52.564Z,20.23
2018-07-10T03:32:22.576Z,20.23
2018-07-10T03:34:52.536Z,20.28
2018-07-10T03:37:22.529Z,20.33
2018-07-10T03:39:52.507Z,20.36
2018-07-10T03:42:22.472Z,20.39
2018-07-10T03:44:52.552Z,20.45
2018-07-10T03:47:22.552Z,20.47
2018-07-10T03:49:52.914Z,20.59
2018-07-10T03:52:28.010Z,20.67
2018-07-10T03:55:00.615Z,20.70
2018-07-10T03:57:30.645Z,20.72
2018-07-10T04:00:06.183Z,20.82
2018-07-10T04:02:37.052Z,20.88
2018-07-10T04:05:06.972Z,20.91
2018-07-10T04:07:37.046Z,21.14
2018-07-10T04:10:07.553Z,21.28
2018-07-10T04:12:38.312Z,21.39
2018-07-10T04:15:08.292Z,21.74
2018-07-10T04:17:43.220Z,21.96
2018-07-10T04:20:16.748Z,22.17
2018-07-10T04:22:52.513Z,22.52
2018-07-10T04:25:26.580Z,22.84
2018-07-10T04:28:02.460Z,23.09
2018-07-10T04:30:57.165Z,23.30
2018-07-10T04:33:27.211Z,23.41
2018-07-10T04:35:57.284Z,23.54
2018-07-10T04:38:28.856Z,23.80
2018-07-10T04:41:05.235Z,23.99
2018-07-10T04:43:35.236Z,24.16
2018-07-10T04:46:05.300Z,24.46
2018-07-10T04:48:39.905Z,24.50
2018-07-10T04:51:18.988Z,24.81
2018-07-10T04:53:56.552Z,24.96
2018-07-10T04:56:26.989Z,24.92
2018-07-10T04:58:57.260Z,24.99
2018-07-10T05:01:34.572Z,24.96
2018-07-10T05:04:05.455Z,25.11
2018-07-10T05:06:36.132Z,24.74
2018-07-10T05:09:06.738Z,24.71
2018-07-10T05:11:40.245Z,24.79
2018-07-10T05:14:10.428Z,25.12
2018-07-10T05:16:40.442Z,25.04
2018-07-10T05:19:10.763Z,25.06
2018-07-10T05:21:41.597Z,25.25
2018-07-10T05:24:11.978Z,25.15
2018-07-10T05:26:42.625Z,25.38
2018-07-10T05:29:12.676Z,25.37
2018-07-10T05:31:43.000Z,25.30
2018-07-10T05:34:13.212Z,25.57
2018-07-10T05:36:43.496Z,25.65
2018-07-10T05:39:13.681Z,25.84
2018-07-10T05:41:46.204Z,25.55
2018-07-10T05:44:19.832Z,25.39
2018-07-10T05:46:49.916Z,25.39
2018-07-10T05:49:20.051Z,25.47
2018-07-10T05:51:52.443Z,25.46
2018-07-10T05:54:23.740Z,25.14
2018-07-10T05:56:53.808Z,25.46
2018-07-10T05:59:23.802Z,25.62
2018-07-10T06:01:53.892Z,25.66
2018-07-10T06:04:24.167Z,25.56
2018-07-10T06:06:54.304Z,25.54
2018-07-10T06:09:24.380Z,25.59
2018-07-10T06:11:54.317Z,25.85
2018-07-10T06:14:24.530Z,25.98
2018-07-10T06:16:54.755Z,26.19
2018-07-10T06:19:24.777Z,25.86
2018-07-10T06:21:54.841Z,25.87
2018-07-10T06:24:26.967Z,25.96
2018-07-10T06:27:03.156Z,25.72
2018-07-10T06:30:37.944Z,25.86
2018-07-10T06:33:19.959Z,25.92
2018-07-10T06:35:55.240Z,25.99
2018-07-10T06:38:25.275Z,26.12
2018-07-10T06:40:55.424Z,25.21
2018-07-10T06:43:34.434Z,25.92
2018-07-10T06:46:04.527Z,26.12
2018-07-10T06:48:37.789Z,26.12
2018-07-10T06:51:14.804Z,26.28
2018-07-10T06:53:46.069Z,26.35
2018-07-10T06:56:25.864Z,26.45
2018-07-10T06:58:56.141Z,26.46
2018-07-10T07:01:26.244Z,26.67
2018-07-10T07:04:02.114Z,26.36
2018-07-10T07:06:32.560Z,26.46
2018-07-10T07:09:02.526Z,26.49
2018-07-10T07:11:32.560Z,26.06
2018-07-10T07:14:02.540Z,26.53
2018-07-10T07:16:32.484Z,26.39
2018-07-10T07:19:02.473Z,26.69
2018-07-10T07:21:32.529Z,26.40
2018-07-10T07:24:02.581Z,26.65
2018-07-10T07:26:32.780Z,26.72
2018-07-10T07:29:03.088Z,26.97
2018-07-10T07:31:33.347Z,26.98
2018-07-10T07:34:03.476Z,26.96
2018-07-10T07:36:33.582Z,27.08
2018-07-10T07:39:04.946Z,26.92
2018-07-10T07:41:34.868Z,26.92
2018-07-10T07:44:05.116Z,27.06
2018-07-10T07:46:35.151Z,27.02
2018-07-10T07:49:05.192Z,26.85
2018-07-10T07:51:35.303Z,27.00
2018-07-10T07:54:06.028Z,26.96
2018-07-10T07:56:36.732Z,27.08
2018-07-10T07:59:07.014Z,27.11
2018-07-10T08:01:37.000Z,27.17
2018-07-10T08:04:07.082Z,27.16
2018-07-10T08:06:37.231Z,27.22
2018-07-10T08:09:07.780Z,27.30
2018-07-10T08:11:37.832Z,27.37
2018-07-10T08:14:07.985Z,27.22
2018-07-10T08:16:38.112Z,27.26
2018-07-10T08:19:08.106Z,27.18
2018-07-10T08:21:39.645Z,27.33
2018-07-10T08:24:09.776Z,27.21
2018-07-10T08:26:39.952Z,27.42
2018-07-10T08:29:10.224Z,27.42
2018-07-10T08:31:40.987Z,27.25
2018-07-10T08:34:10.969Z,27.31
2018-07-10T08:36:41.881Z,27.51
2018-07-10T08:39:12.169Z,27.66
2018-07-10T08:41:46.947Z,27.42
2018-07-10T08:44:20.417Z,27.60
2018-07-10T08:46:58.053Z,27.46
2018-07-10T08:49:32.692Z,27.51
2018-07-10T08:52:02.780Z,27.58
2018-07-10T08:54:32.970Z,27.51
2018-07-10T08:57:03.945Z,27.51
2018-07-10T08:59:34.789Z,27.72
2018-07-10T09:02:04.904Z,27.82
2018-07-10T09:04:35.302Z,27.84
2018-07-10T09:07:05.955Z,27.80
2018-07-10T09:09:36.065Z,27.81
2018-07-10T09:12:06.080Z,27.87
2018-07-10T09:14:36.020Z,27.93
2018-07-10T09:17:06.025Z,27.90
2018-07-10T09:19:36.164Z,28.20
2018-07-10T09:22:11.613Z,28.14
2018-07-10T09:24:48.094Z,28.26
2018-07-10T09:27:21.472Z,28.46
2018-07-10T09:29:51.720Z,28.68
2018-07-10T09:32:27.579Z,28.68
2018-07-10T09:34:58.852Z,28.89
2018-07-10T09:37:36.274Z,29.04
2018-07-10T09:40:11.970Z,28.84
2018-07-10T09:42:47.268Z,28.73
2018-07-10T09:45:17.430Z,28.86
2018-07-10T09:47:47.564Z,29.04
2018-07-10T09:50:17.744Z,29.01
2018-07-10T09:52:49.038Z,29.00
2018-07-10T09:55:19.194Z,29.13
2018-07-10T09:57:49.408Z,29.27
2018-07-10T10:00:24.900Z,29.24
2018-07-10T10:02:56.399Z,29.25
2018-07-10T10:05:26.952Z,29.31
2018-07-10T10:07:56.992Z,29.48
2018-07-10T10:10:27.240Z,29.39
2018-07-10T10:12:57.396Z,29.28
2018-07-10T10:15:31.881Z,29.24
2018-07-10T10:18:04.039Z,28.61
2018-07-10T10:20:34.965Z,29.16
2018-07-10T10:23:05.385Z,29.34
2018-07-10T10:25:38.482Z,29.31
2018-07-10T10:28:09.799Z,29.20
2018-07-10T10:30:40.688Z,28.99
2018-07-10T10:33:11.088Z,28.83
2018-07-10T10:35:41.281Z,28.93
2018-07-10T10:38:11.484Z,29.04
2018-07-10T10:40:41.791Z,29.11
2018-07-10T10:43:13.080Z,29.16
2018-07-10T10:45:44.521Z,29.46
2018-07-10T10:48:16.040Z,29.75
2018-07-10T10:50:52.332Z,29.74
2018-07-10T10:53:23.440Z,29.86
2018-07-10T10:55:53.519Z,29.95
2018-07-10T10:58:23.536Z,30.04
2018-07-10T11:00:53.851Z,29.90
2018-07-10T11:03:24.068Z,29.81
2018-07-10T11:05:54.138Z,29.87
2018-07-10T11:08:24.320Z,30.21
2018-07-10T11:10:54.392Z,30.20
2018-07-10T11:13:26.742Z,30.19
2018-07-10T11:15:56.885Z,30.16
2018-07-10T11:18:44.209Z,30.35
2018-07-10T11:22:23.324Z,30.19
2018-07-10T11:25:04.000Z,29.92
2018-07-10T11:27:42.919Z,30.09
2018-07-10T11:30:12.988Z,30.27
2018-07-10T11:32:43.125Z,30.40
2018-07-10T11:35:13.120Z,30.47
2018-07-10T11:37:43.244Z,30.38
2018-07-10T11:40:14.209Z,30.37
2018-07-10T11:42:44.652Z,29.94
2018-07-10T11:45:14.673Z,30.58
2018-07-10T11:47:44.800Z,30.60
2018-07-10T11:50:14.860Z,30.41
2018-07-10T11:52:44.952Z,30.44
2018-07-10T11:55:15.041Z,30.37
2018-07-10T11:57:45.092Z,30.20
2018-07-10T12:00:15.168Z,29.69
2018-07-10T12:02:48.352Z,30.40
2018-07-10T12:05:19.611Z,30.49
2018-07-10T12:07:56.936Z,30.57
2018-07-10T12:10:31.595Z,30.60
2018-07-10T12:13:01.540Z,30.64
2018-07-10T12:15:31.765Z,30.72
2018-07-10T12:18:02.190Z,30.74
2018-07-10T12:20:41.476Z,30.75
2018-07-10T12:23:12.672Z,30.68
2018-07-10T12:25:44.106Z,30.64
2018-07-10T12:28:15.378Z,30.62
2018-07-10T12:30:45.381Z,30.74
2018-07-10T12:33:15.422Z,30.90
2018-07-10T12:35:45.398Z,30.97
2018-07-10T12:38:15.382Z,30.92
2018-07-10T12:40:45.473Z,31.03
2018-07-10T12:43:15.584Z,31.04
2018-07-10T12:45:45.605Z,31.12
2018-07-10T12:48:15.648Z,31.19
2018-07-10T12:50:45.837Z,31.44
2018-07-10T12:53:15.884Z,31.57
2018-07-10T12:55:46.178Z,31.53
2018-07-10T12:58:17.296Z,30.91
2018-07-10T13:00:47.336Z,31.49
2018-07-10T13:03:19.816Z,31.48
2018-07-10T13:05:54.807Z,31.18
2018-07-10T13:08:25.406Z,30.84
2018-07-10T13:10:55.539Z,30.72
2018-07-10T13:13:25.636Z,30.86
2018-07-10T13:15:55.816Z,30.77
2018-07-10T13:18:28.628Z,30.79
2018-07-10T13:20:58.772Z,30.82
2018-07-10T13:23:29.040Z,30.88
2018-07-10T13:25:59.180Z,31.00
2018-07-10T13:28:29.221Z,31.05
2018-07-10T13:30:59.281Z,30.99
2018-07-10T13:33:29.445Z,31.01
2018-07-10T13:35:59.504Z,31.04
2018-07-10T13:38:29.602Z,31.01
2018-07-10T13:41:01.562Z,30.94
2018-07-10T13:43:31.657Z,30.77
2018-07-10T13:46:01.829Z,30.73
2018-07-10T13:48:32.105Z,30.84
2018-07-10T13:51:02.093Z,30.56
2018-07-10T13:53:32.167Z,30.69
2018-07-10T13:56:02.297Z,30.91
2018-07-10T13:58:33.017Z,31.01
2018-07-10T14:01:07.784Z,31.12
2018-07-10T14:03:38.138Z,30.87
2018-07-10T14:06:08.228Z,30.66
2018-07-10T14:08:38.240Z,30.85
2018-07-10T14:11:08.270Z,30.73
2018-07-10T14:13:38.390Z,30.61
2018-07-10T14:16:08.439Z,30.45
2018-07-10T14:18:38.498Z,30.41
2018-07-10T14:21:09.504Z,30.41
2018-07-10T14:23:39.538Z,30.40
2018-07-10T14:26:09.577Z,30.40
2018-07-10T14:28:40.545Z,29.35
2018-07-10T14:31:10.588Z,30.48
2018-07-10T14:33:40.593Z,30.42
2018-07-10T14:36:10.688Z,30.30
2018-07-10T14:38:42.144Z,30.36
2018-07-10T14:41:12.638Z,30.46
2018-07-10T14:43:44.560Z,29.90
2018-07-10T14:46:18.508Z,30.50
2018-07-10T14:48:55.663Z,30.57
2018-07-10T14:51:32.058Z,30.53
2018-07-10T14:54:02.069Z,30.51
2018-07-10T14:56:32.116Z,30.75
2018-07-10T14:59:02.280Z,30.82
2018-07-10T15:01:32.280Z,30.88
2018-07-10T15:04:02.169Z,30.86
2018-07-10T15:06:32.120Z,30.91
2018-07-10T15:09:02.230Z,30.96
2018-07-10T15:11:32.145Z,31.03
2018-07-10T15:14:05.819Z,30.98
2018-07-10T15:16:40.665Z,31.02
2018-07-10T15:19:10.629Z,31.03
2018-07-10T15:21:40.640Z,31.05
2018-07-10T15:24:10.636Z,31.00
2018-07-10T15:26:40.656Z,30.94
2018-07-10T15:29:10.749Z,30.95
2018-07-10T15:31:40.640Z,30.88
2018-07-10T15:34:10.668Z,30.77
2018-07-10T15:36:40.536Z,30.71
2018-07-10T15:39:10.563Z,30.68
2018-07-10T15:41:40.554Z,30.59
2018-07-10T15:44:10.488Z,30.33
2018-07-10T15:46:40.477Z,30.30
2018-07-10T15:49:10.484Z,30.13
2018-07-10T15:51:40.389Z,30.09
2018-07-10T15:54:10.313Z,30.02
2018-07-10T15:56:40.220Z,29.80
2018-07-10T15:59:10.191Z,29.65
2018-07-10T16:01:40.192Z,29.65
2018-07-10T16:04:10.240Z,29.09
2018-07-10T16:06:40.279Z,29.35
2018-07-10T16:09:25.689Z,29.33
2018-07-10T16:12:00.279Z,29.11
2018-07-10T16:14:30.502Z,29.12
2018-07-10T16:17:00.872Z,29.03
2018-07-10T16:19:39.663Z,28.97
2018-07-10T16:22:25.106Z,28.86
2018-07-10T16:24:58.604Z,28.87
2018-07-10T16:27:36.308Z,28.82
2018-07-10T16:30:06.605Z,28.95
2018-07-10T16:32:38.988Z,28.81
2018-07-10T16:35:09.372Z,28.84
2018-07-10T16:37:39.370Z,28.81
2018-07-10T16:40:09.638Z,28.76
2018-07-10T16:42:44.700Z,28.51
2018-07-10T16:45:21.193Z,28.47
2018-07-10T16:47:59.540Z,28.41
2018-07-10T16:50:34.928Z,28.37
2018-07-10T16:53:04.976Z,28.21
2018-07-10T16:55:34.915Z,28.27
2018-07-10T16:58:04.840Z,28.27
2018-07-10T17:00:34.900Z,28.08
2018-07-10T17:03:04.929Z,28.04
2018-07-10T17:05:34.918Z,27.87
2018-07-10T17:08:04.824Z,27.84
2018-07-10T17:10:34.809Z,27.81
2018-07-10T17:13:04.820Z,27.57
2018-07-10T17:15:34.863Z,27.50
2018-07-10T17:18:05.032Z,27.44
2018-07-10T17:20:35.132Z,27.48
2018-07-10T17:23:05.176Z,27.40
2018-07-10T17:25:35.164Z,27.24
2018-07-10T17:28:05.256Z,27.17
2018-07-10T17:30:35.225Z,27.08
2018-07-10T17:33:05.227Z,26.99
2018-07-10T17:35:35.156Z,26.92
2018-07-10T17:38:05.204Z,26.84
2018-07-10T17:40:35.320Z,26.67
2018-07-10T17:43:05.393Z,26.51
2018-07-10T17:45:35.353Z,26.52
2018-07-10T17:48:05.445Z,26.42
2018-07-10T17:50:35.523Z,26.26
2018-07-10T17:53:05.523Z,26.22
2018-07-10T17:55:36.460Z,26.05
2018-07-10T17:58:06.872Z,26.02
2018-07-10T18:00:36.960Z,26.03
2018-07-10T18:03:06.884Z,26.04
2018-07-10T18:05:36.836Z,25.84
2018-07-10T18:08:06.898Z,25.69
2018-07-10T18:10:36.917Z,25.60
2018-07-10T18:13:07.060Z,25.57
2018-07-10T18:15:37.130Z,25.55
2018-07-10T18:18:07.092Z,25.42
2018-07-10T18:20:37.078Z,25.32
2018-07-10T18:23:07.184Z,25.32
2018-07-10T18:25:37.547Z,25.15
2018-07-10T18:28:07.691Z,25.11
2018-07-10T18:30:37.572Z,25.09
2018-07-10T18:33:07.635Z,25.12
2018-07-10T18:35:37.645Z,25.05
2018-07-10T18:38:07.636Z,25.06
2018-07-10T18:40:37.728Z,24.88
2018-07-10T18:43:07.748Z,24.80
2018-07-10T18:45:37.963Z,24.62
2018-07-10T18:48:08.052Z,24.61
2018-07-10T18:50:38.108Z,24.59
2018-07-10T18:53:08.084Z,24.55
2018-07-10T18:55:38.410Z,24.45
2018-07-10T18:59:16.086Z,24.44
2018-07-10T19:02:03.124Z,24.52
2018-07-10T19:05:06.824Z,24.46
2018-07-10T19:07:39.669Z,24.44
2018-07-10T19:10:09.701Z,24.46
2018-07-10T19:12:39.880Z,24.38
2018-07-10T19:15:10.058Z,24.42
2018-07-10T19:17:40.085Z,24.30
2018-07-10T19:20:11.526Z,24.23
2018-07-10T19:22:57.743Z,24.20
2018-07-10T19:25:27.807Z,24.07
2018-07-10T19:27:59.768Z,24.01
2018-07-10T19:30:33.328Z,23.13
2018-07-10T19:33:04.388Z,24.03
2018-07-10T19:35:34.417Z,23.94
2018-07-10T19:38:04.395Z,23.91
2018-07-10T19:40:34.452Z,23.90
2018-07-10T19:43:04.546Z,23.95
2018-07-10T19:45:34.452Z,23.94
2018-07-10T19:48:04.512Z,23.96
2018-07-10T19:50:39.544Z,23.96
2018-07-10T19:53:09.601Z,23.99
2018-07-10T19:55:43.721Z,23.95
2018-07-10T19:58:34.475Z,23.84
2018-07-10T20:01:25.243Z,23.80
2018-07-10T20:04:03.103Z,23.83
2018-07-10T20:06:44.201Z,23.77
2018-07-10T20:09:18.873Z,23.77
2018-07-10T20:11:56.534Z,23.75
2018-07-10T20:14:26.647Z,23.72
2018-07-10T20:17:03.708Z,23.67
2018-07-10T20:19:47.848Z,23.69
2018-07-10T20:22:27.624Z,23.69
2018-07-10T20:25:06.698Z,23.57
2018-07-10T20:27:45.416Z,23.53
2018-07-10T20:31:23.665Z,23.55
2018-07-10T20:34:33.912Z,23.59
2018-07-10T20:37:03.974Z,23.54
2018-07-10T20:39:35.822Z,23.58
2018-07-10T20:42:06.167Z,23.49
2018-07-10T20:44:45.373Z,23.49
2018-07-10T20:47:15.388Z,23.48
2018-07-10T20:49:55.671Z,23.47
2018-07-10T20:54:36.794Z,23.43
2018-07-10T20:57:22.082Z,23.43
2018-07-10T20:59:57.414Z,23.30
2018-07-10T21:03:05.736Z,23.37
2018-07-10T21:05:39.445Z,23.33
2018-07-10T21:09:17.908Z,23.23
2018-07-10T21:11:55.994Z,23.29
2018-07-10T21:14:35.260Z,23.27
2018-07-10T21:17:09.337Z,23.21
2018-07-10T21:21:54.212Z,23.28
2018-07-10T21:24:36.177Z,23.21
2018-07-10T21:27:07.348Z,23.25
2018-07-10T21:29:59.216Z,23.28
2018-07-10T21:32:48.973Z,23.32
2018-07-10T21:35:21.779Z,23.26
2018-07-10T21:40:08.515Z,23.28
2018-07-10T21:43:18.008Z,23.20
2018-07-10T21:48:24.544Z,23.10
2018-07-10T21:50:54.731Z,22.93
2018-07-10T21:53:24.888Z,22.90
2018-07-10T21:55:54.808Z,22.80
2018-07-10T21:58:24.813Z,22.79
2018-07-10T22:02:01.296Z,22.77
2018-07-10T22:04:32.531Z,22.82
2018-07-10T22:07:04.715Z,22.86
2018-07-10T22:09:36.332Z,22.81
2018-07-10T22:12:10.823Z,22.64
2018-07-10T22:14:41.600Z,22.64
2018-07-10T22:17:16.798Z,22.62
2018-07-10T22:19:48.595Z,22.64
2018-07-10T22:22:20.456Z,22.57
2018-07-10T22:24:51.659Z,22.56
2018-07-10T22:27:22.243Z,22.45
2018-07-10T22:30:02.974Z,22.39
2018-07-10T22:32:41.240Z,22.33
2018-07-10T22:35:11.279Z,22.36
2018-07-10T22:37:41.255Z,22.32
2018-07-10T22:40:11.269Z,22.25
2018-07-10T22:42:41.132Z,22.19
2018-07-10T22:45:11.228Z,22.15
2018-07-10T22:47:42.399Z,22.05
2018-07-10T22:50:17.956Z,22.05
2018-07-10T22:53:02.517Z,21.99
2018-07-10T22:55:33.589Z,21.90
2018-07-10T22:58:06.322Z,21.97
2018-07-10T23:00:37.462Z,21.94
2018-07-10T23:03:16.271Z,21.84
2018-07-10T23:05:47.158Z,21.78
2018-07-10T23:08:18.668Z,21.79
2018-07-10T23:10:48.671Z,21.76
2018-07-10T23:13:18.939Z,21.71
2018-07-10T23:15:49.362Z,21.69
2018-07-10T23:18:19.503Z,21.75
2018-07-10T23:20:49.420Z,21.70
2018-07-10T23:23:19.996Z,21.72
2018-07-10T23:25:49.774Z,21.63
2018-07-10T23:28:19.475Z,21.64
2018-07-10T23:30:49.192Z,21.63
2018-07-10T23:33:19.509Z,21.57
2018-07-10T23:35:56.299Z,21.64
2018-07-10T23:38:34.678Z,21.62
2018-07-10T23:41:04.402Z,21.56
2018-07-10T23:43:42.476Z,21.51
2018-07-10T23:46:20.674Z,21.37
2018-07-10T23:48:53.439Z,21.49
2018-07-10T23:51:23.175Z,21.33
2018-07-10T23:53:54.051Z,21.25
2018-07-10T23:56:24.088Z,21.21
2018-07-10T23:58:54.149Z,21.16
